Time;durP1;ratioP1;P1;durP2;ratioP2;P2;SDS_P1;SDS_P2;PMS_P1;PMS_P2;Temp;Humidity;BMP_temperature;BMP_pressure;BME280_temperature;BME280_humidity;BME280_pressure;Samples;Min_cycle;Max_cycle;Signal;HPM_P1;HPM_P2
2023/03/26 00:01:23;;;;;;;;;;;7.60;99.90;;;;;;5094350;27;1150;-76
2023/03/26 00:03:53;;;;;;;;;;;7.60;99.90;;;;;;5131662;27;1095;-77
2023/03/26 00:06:21;;;;;;;;;;;7.60;99.90;;;;;;5121730;27;1373;-76
2023/03/26 00:08:47;;;;;;;;;;;7.60;99.90;;;;;;5111547;28;1029;-76
2023/03/26 00:11:14;;;;;;;;;;;7.60;99.90;;;;;;5110111;27;1343;-76
2023/03/26 00:13:42;;;;;;;;;;;7.50;99.90;;;;;;5100946;28;1009;-76
2023/03/26 00:16:09;;;;;;;;;;;9.00;99.90;;;;;;5111053;28;1930;-76
2023/03/26 00:18:36;;;;;;;;;;;7.50;99.90;;;;;;5110709;28;1108;-76
2023/03/26 00:21:03;;;;;;;;;;;7.50;99.90;;;;;;5093509;28;1024;-76
2023/03/26 00:23:30;;;;;;;;;;;7.50;99.90;;;;;;5111137;28;1131;-76
2023/03/26 00:25:55;;;;;;;;;;;7.50;99.90;;;;;;5111163;28;1182;-76
2023/03/26 00:28:22;;;;;;;;;;;7.40;99.90;;;;;;5111322;28;1180;-75
2023/03/26 00:30:48;;;;;;;;;;;7.40;99.90;;;;;;5111047;28;1151;-76
2023/03/26 00:33:16;;;;;;;;;;;7.40;99.90;;;;;;5110849;28;1183;-76
2023/03/26 00:35:45;;;;;;;;;;;7.40;99.90;;;;;;5092416;28;1930;-76
2023/03/26 00:38:13;;;;;;;;;;;7.30;99.90;;;;;;5092589;28;1945;-76
2023/03/26 00:40:43;;;;;;;;;;;7.30;99.90;;;;;;5092709;28;1204;-76
2023/03/26 00:43:17;;;;;;;;;;;7.30;99.90;;;;;;5123285;27;1130;-75
2023/03/26 00:45:50;;;;;;;;;;;7.30;99.90;;;;;;5120260;27;1214;-76
2023/03/26 00:48:16;;;;;;;;;;;7.30;99.90;;;;;;5092165;28;1108;-76
2023/03/26 00:50:43;;;;;;;;;;;7.20;99.90;;;;;;5111070;28;1128;-76
2023/03/26 00:53:12;;;;;;;;;;;7.20;99.90;;;;;;5110201;28;1104;-75
2023/03/26 00:55:39;;;;;;;;;;;7.20;99.90;;;;;;5110246;28;1919;-75
2023/03/26 00:58:09;;;;;;;;;;;7.20;99.90;;;;;;5092155;28;1008;-75
2023/03/26 01:00:35;;;;;;;;;;;7.20;99.90;;;;;;5110257;28;1037;-76
2023/03/26 01:03:03;;;;;;;;;;;7.20;99.90;;;;;;5110041;28;1289;-75
2023/03/26 01:05:41;;;;;;;;;;;7.20;99.90;;;;;;5110719;28;1425;-75
2023/03/26 01:08:25;;;;;;;;;;;7.10;99.90;;;;;;5109829;28;1101;-76
2023/03/26 01:10:52;;;;;;;;;;;7.10;99.90;;;;;;5110588;28;1143;-75
2023/03/26 01:13:20;;;;;;;;;;;7.10;99.90;;;;;;5114503;27;1311;-75
2023/03/26 01:15:49;;;;;;;;;;;7.10;99.90;;;;;;5109097;28;1984;-76
2023/03/26 01:18:18;;;;;;;;;;;7.10;99.90;;;;;;5092102;28;1349;-76
2023/03/26 01:20:45;;;;;;;;;;;7.10;99.90;;;;;;5103365;28;1132;-75
2023/03/26 01:23:14;;;;;;;;;;;7.10;99.90;;;;;;5109808;28;1191;-76
2023/03/26 01:25:44;;;;;;;;;;;7.10;99.90;;;;;;5092390;28;1084;-76
2023/03/26 01:28:11;;;;;;;;;;;7.10;99.90;;;;;;5110106;28;1135;-75
2023/03/26 01:30:41;;;;;;;;;;;7.20;99.90;;;;;;5117622;27;1157;-76
2023/03/26 01:33:28;;;;;;;;;;;7.10;99.90;;;;;;5110300;28;1101;-76
2023/03/26 01:36:12;;;;;;;;;;;7.10;99.90;;;;;;5108115;28;1904;-76
2023/03/26 01:38:38;;;;;;;;;;;7.10;99.90;;;;;;5109270;28;1089;-76
2023/03/26 01:41:09;;;;;;;;;;;7.10;99.90;;;;;;5091985;28;1148;-76
2023/03/26 01:43:48;;;;;;;;;;;7.10;99.90;;;;;;5124838;27;1174;-76
2023/03/26 01:46:15;;;;;;;;;;;7.10;99.90;;;;;;5129657;27;1197;-76
2023/03/26 01:48:42;;;;;;;;;;;7.10;99.90;;;;;;5092545;28;1375;-76
2023/03/26 01:51:09;;;;;;;;;;;7.00;99.90;;;;;;5109497;28;1012;-76
2023/03/26 01:53:40;;;;;;;;;;;7.00;99.90;;;;;;5109523;28;1163;-76
2023/03/26 01:56:12;;;;;;;;;;;7.00;99.90;;;;;;5090835;28;1928;-76
2023/03/26 01:58:46;;;;;;;;;;;6.90;99.90;;;;;;5128233;27;1124;-76
2023/03/26 02:01:23;;;;;;;;;;;7.00;99.90;;;;;;5111434;27;1166;-76
2023/03/26 02:03:52;;;;;;;;;;;7.00;99.90;;;;;;5145523;27;1324;-76
2023/03/26 02:06:24;;;;;;;;;;;7.00;99.90;;;;;;5078241;28;1308;-75
2023/03/26 02:08:52;;;;;;;;;;;7.00;99.90;;;;;;5109505;28;1112;-76
2023/03/26 02:11:18;;;;;;;;;;;6.90;99.90;;;;;;5091819;27;1418;-76
2023/03/26 02:13:45;;;;;;;;;;;6.90;99.90;;;;;;5090825;28;1188;-76
2023/03/26 02:16:13;;;;;;;;;;;6.90;99.90;;;;;;5125338;27;1992;-76
2023/03/26 02:18:39;;;;;;;;;;;6.90;99.90;;;;;;5109281;28;1139;-75
2023/03/26 02:21:08;;;;;;;;;;;6.90;99.90;;;;;;5109251;28;1171;-76
2023/03/26 02:23:39;;;;;;;;;;;6.80;99.90;;;;;;5094589;28;1130;-76
2023/03/26 02:26:07;;;;;;;;;;;6.80;99.90;;;;;;5073951;28;1156;-76
2023/03/26 02:28:35;;;;;;;;;;;6.80;99.90;;;;;;5094120;28;1503;-76
2023/03/26 02:31:01;;;;;;;;;;;6.80;99.90;;;;;;5095026;28;1195;-75
2023/03/26 02:33:28;;;;;;;;;;;6.80;99.90;;;;;;5095022;28;1088;-75
2023/03/26 02:35:58;;;;;;;;;;;6.80;99.90;;;;;;5127300;27;2037;-76
2023/03/26 02:38:25;;;;;;;;;;;6.80;99.90;;;;;;5078710;28;1168;-76
2023/03/26 02:40:53;;;;;;;;;;;6.70;99.90;;;;;;5077315;28;1134;-75
2023/03/26 02:43:20;;;;;;;;;;;6.70;99.90;;;;;;5077862;28;1459;-76
2023/03/26 02:45:46;;;;;;;;;;;6.70;99.90;;;;;;5094625;28;1164;-75
2023/03/26 02:48:36;;;;;;;;;;;6.70;99.90;;;;;;5112370;28;1315;-76
2023/03/26 02:51:10;;;;;;;;;;;6.70;99.90;;;;;;5094915;28;1112;-75
2023/03/26 02:53:42;;;;;;;;;;;6.70;99.90;;;;;;5077862;28;1172;-76
2023/03/26 02:56:36;;;;;;;;;;;6.70;99.90;;;;;;5077421;28;1967;-76
2023/03/26 02:59:17;;;;;;;;;;;6.70;99.90;;;;;;5088456;28;1110;-75
2023/03/26 03:01:46;;;;;;;;;;;6.60;99.90;;;;;;5094581;28;1168;-75
2023/03/26 03:04:16;;;;;;;;;;;6.60;99.90;;;;;;5094812;28;1112;-75
2023/03/26 03:06:43;;;;;;;;;;;6.50;99.90;;;;;;5077860;28;1300;-76
2023/03/26 03:09:10;;;;;;;;;;;6.50;99.90;;;;;;5120019;27;1137;-75
2023/03/26 03:11:37;;;;;;;;;;;6.50;99.90;;;;;;5113757;27;1429;-75
2023/03/26 03:14:04;;;;;;;;;;;6.40;99.90;;;;;;5094055;28;1093;-75
2023/03/26 03:16:31;;;;;;;;;;;6.40;99.90;;;;;;5094179;28;1914;-75
2023/03/26 03:19:01;;;;;;;;;;;6.40;99.90;;;;;;5094577;28;1077;-75
2023/03/26 03:21:35;;;;;;;;;;;6.40;99.90;;;;;;5093764;28;1081;-75
2023/03/26 03:24:00;;;;;;;;;;;6.40;99.90;;;;;;5094227;28;1049;-75
2023/03/26 03:26:30;;;;;;;;;;;6.40;99.90;;;;;;5149326;27;1190;-75
2023/03/26 03:29:00;;;;;;;;;;;6.30;99.90;;;;;;5097066;28;1108;-75
2023/03/26 03:31:25;;;;;;;;;;;6.30;99.90;;;;;;5094319;28;1164;-75
2023/03/26 03:33:55;;;;;;;;;;;6.30;99.90;;;;;;5086692;28;1101;-75
2023/03/26 03:36:21;;;;;;;;;;;6.30;99.90;;;;;;5093582;28;1969;-75
2023/03/26 03:39:01;;;;;;;;;;;6.30;99.90;;;;;;5076672;28;1152;-74
2023/03/26 03:41:27;;;;;;;;;;;6.40;99.90;;;;;;5094514;28;1117;-75
2023/03/26 03:43:53;;;;;;;;;;;6.40;99.90;;;;;;5110983;28;988;-74
2023/03/26 03:46:25;;;;;;;;;;;6.40;99.90;;;;;;5093839;28;1172;-75
2023/03/26 03:48:50;;;;;;;;;;;6.40;99.90;;;;;;5093621;28;1159;-75
2023/03/26 03:51:22;;;;;;;;;;;6.50;99.90;;;;;;5076499;28;1227;-75
2023/03/26 03:53:52;;;;;;;;;;;6.50;99.90;;;;;;5093850;28;1211;-75
2023/03/26 03:56:30;;;;;;;;;;;6.60;99.90;;;;;;5093079;28;1910;-75
2023/03/26 03:59:22;;;;;;;;;;;6.60;99.90;;;;;;5079388;28;1130;-75
2023/03/26 04:01:49;;;;;;;;;;;6.60;99.90;;;;;;5093763;28;1412;-75
2023/03/26 04:04:31;;;;;;;;;;;6.60;99.90;;;;;;5076187;28;1105;-75
2023/03/26 04:06:59;;;;;;;;;;;6.60;99.90;;;;;;5093497;28;1355;-75
2023/03/26 04:09:30;;;;;;;;;;;6.60;99.90;;;;;;5081606;28;1125;-75
2023/03/26 04:12:01;;;;;;;;;;;6.60;99.90;;;;;;5094162;28;1386;-75
2023/03/26 04:14:38;;;;;;;;;;;6.60;99.90;;;;;;5093753;28;1121;-75
2023/03/26 04:17:15;;;;;;;;;;;6.60;99.90;;;;;;5092531;28;1906;-75
2023/03/26 04:19:43;;;;;;;;;;;6.50;99.90;;;;;;5111558;28;1159;-75
2023/03/26 04:22:10;;;;;;;;;;;6.50;99.90;;;;;;5093529;28;1101;-74
2023/03/26 04:24:49;;;;;;;;;;;6.50;99.90;;;;;;5092921;28;1144;-74
2023/03/26 04:27:36;;;;;;;;;;;6.50;99.90;;;;;;5075116;28;1232;-75
2023/03/26 04:30:17;;;;;;;;;;;6.50;99.90;;;;;;5093494;28;1211;-75
2023/03/26 04:32:47;;;;;;;;;;;6.50;99.90;;;;;;5075863;28;1149;-74
2023/03/26 04:35:15;;;;;;;;;;;6.50;99.90;;;;;;5093664;28;1211;-75
2023/03/26 04:37:44;;;;;;;;;;;6.60;99.90;;;;;;5131047;27;1977;-74
2023/03/26 04:40:16;;;;;;;;;;;6.50;99.90;;;;;;5147470;27;1103;-75
2023/03/26 04:43:01;;;;;;;;;;;6.60;99.90;;;;;;5083106;28;1104;-75
2023/03/26 04:45:47;;;;;;;;;;;6.60;99.90;;;;;;5109368;28;1158;-75
2023/03/26 04:48:13;;;;;;;;;;;6.60;99.90;;;;;;5090591;28;1084;-74
2023/03/26 04:50:41;;;;;;;;;;;6.60;99.90;;;;;;5074846;28;1173;-75
2023/03/26 04:53:12;;;;;;;;;;;6.50;99.90;;;;;;5103654;28;1165;-74
2023/03/26 04:56:07;;;;;;;;;;;6.50;99.90;;;;;;5092075;28;1989;-74
2023/03/26 04:58:58;;;;;;;;;;;6.50;99.90;;;;;;5092888;28;1028;-74
2023/03/26 05:01:27;;;;;;;;;;;6.50;99.90;;;;;;5074642;28;1578;-75
2023/03/26 05:03:53;;;;;;;;;;;6.50;99.90;;;;;;5091676;28;1246;-74
2023/03/26 05:06:20;;;;;;;;;;;6.40;99.90;;;;;;5074917;28;1291;-74
2023/03/26 05:08:46;;;;;;;;;;;6.50;99.90;;;;;;5075720;28;1452;-74
2023/03/26 05:11:24;;;;;;;;;;;6.40;99.90;;;;;;5099057;28;1353;-75
2023/03/26 05:13:50;;;;;;;;;;;6.40;99.90;;;;;;5075293;28;1696;-74
2023/03/26 05:16:16;;;;;;;;;;;6.40;99.90;;;;;;5091919;28;1983;-74
2023/03/26 05:18:48;;;;;;;;;;;6.40;99.90;;;;;;5075126;28;1168;-74
2023/03/26 05:21:14;;;;;;;;;;;6.40;99.90;;;;;;5091368;28;1193;-74
2023/03/26 05:23:40;;;;;;;;;;;6.40;99.90;;;;;;5091963;28;1103;-74
2023/03/26 05:26:15;;;;;;;;;;;6.40;99.90;;;;;;5091878;28;1108;-75
2023/03/26 05:28:41;;;;;;;;;;;6.40;99.90;;;;;;5095594;28;1163;-74
2023/03/26 05:31:17;;;;;;;;;;;6.40;99.90;;;;;;5078124;28;1304;-74
2023/03/26 05:33:46;;;;;;;;;;;6.40;99.90;;;;;;5091566;28;1024;-75
2023/03/26 05:36:14;;;;;;;;;;;6.40;99.90;;;;;;5109684;28;1913;-74
2023/03/26 05:38:48;;;;;;;;;;;6.40;99.90;;;;;;5094135;28;1188;-75
2023/03/26 05:41:20;;;;;;;;;;;6.40;99.90;;;;;;5074545;28;1236;-74
2023/03/26 05:43:48;;;;;;;;;;;6.40;99.90;;;;;;5109084;28;1123;-75
2023/03/26 05:46:19;;;;;;;;;;;6.40;99.90;;;;;;5074162;28;1105;-74
2023/03/26 05:48:46;;;;;;;;;;;6.40;99.90;;;;;;5122409;27;1139;-75
2023/03/26 05:51:14;;;;;;;;;;;6.50;99.90;;;;;;5091623;28;1164;-76
2023/03/26 05:53:45;;;;;;;;;;;6.50;99.90;;;;;;5091737;28;1137;-75
2023/03/26 05:56:14;;;;;;;;;;;6.50;99.90;;;;;;5103953;28;1991;-74
2023/03/26 05:58:59;;;;;;;;;;;6.50;99.90;;;;;;5125518;27;1179;-74
2023/03/26 06:01:46;;;;;;;;;;;6.50;99.90;;;;;;5091406;28;1252;-74
2023/03/26 06:04:30;;;;;;;;;;;6.50;99.90;;;;;;5108328;28;1123;-75
2023/03/26 06:07:18;;;;;;;;;;;6.50;99.90;;;;;;5109317;28;1643;-75
2023/03/26 06:09:52;;;;;;;;;;;6.60;99.90;;;;;;5074257;28;1322;-75
2023/03/26 06:12:19;;;;;;;;;;;6.60;99.90;;;;;;5091456;28;1459;-75
2023/03/26 06:14:46;;;;;;;;;;;6.60;99.90;;;;;;5091712;28;1101;-75
2023/03/26 06:17:17;;;;;;;;;;;6.70;99.90;;;;;;5073769;28;1909;-74
2023/03/26 06:20:05;;;;;;;;;;;6.70;99.90;;;;;;5091092;28;1120;-75
2023/03/26 06:22:35;;;;;;;;;;;6.70;99.90;;;;;;5090710;28;1113;-75
2023/03/26 06:25:19;;;;;;;;;;;6.70;99.90;;;;;;5082480;28;1109;-75
2023/03/26 06:28:21;;;;;;;;;;;6.80;99.90;;;;;;5094226;28;1188;-75
2023/03/26 06:31:05;;;;;;;;;;;6.80;99.90;;;;;;5129408;27;1104;-75
2023/03/26 06:33:35;;;;;;;;;;;6.90;99.90;;;;;;5096629;28;1234;-75
2023/03/26 06:36:01;;;;;;;;;;;6.90;99.90;;;;;;5131194;27;1913;-75
2023/03/26 06:38:26;;;;;;;;;;;7.00;99.90;;;;;;5111488;28;1242;-75
2023/03/26 06:40:52;;;;;;;;;;;7.00;99.90;;;;;;5108629;28;1199;-75
2023/03/26 06:43:23;;;;;;;;;;;7.10;99.90;;;;;;5109461;28;1220;-75
2023/03/26 06:46:16;;;;;;;;;;;7.20;99.90;;;;;;5096179;28;1259;-74
2023/03/26 06:49:13;;;;;;;;;;;7.20;99.90;;;;;;5109884;28;1148;-75
2023/03/26 06:52:03;;;;;;;;;;;7.20;99.90;;;;;;5126031;27;1251;-74
2023/03/26 06:54:41;;;;;;;;;;;7.20;99.90;;;;;;5125185;28;1143;-74
2023/03/26 06:57:15;;;;;;;;;;;7.30;99.90;;;;;;5089716;28;1910;-75
2023/03/26 07:00:02;;;;;;;;;;;7.30;99.90;;;;;;5108606;28;1252;-74
2023/03/26 07:02:47;;;;;;;;;;;7.40;99.90;;;;;;5108426;28;1279;-75
2023/03/26 07:05:31;;;;;;;;;;;7.40;99.90;;;;;;5108984;28;1235;-75
2023/03/26 07:08:15;;;;;;;;;;;7.40;99.90;;;;;;5109288;28;1107;-74
2023/03/26 07:11:00;;;;;;;;;;;7.50;99.90;;;;;;5093558;28;1101;-75
2023/03/26 07:13:46;;;;;;;;;;;7.60;99.90;;;;;;5082740;28;1269;-75
2023/03/26 07:16:31;;;;;;;;;;;7.60;99.90;;;;;;5112714;28;1977;-75
2023/03/26 07:19:08;;;;;;;;;;;7.60;99.90;;;;;;5094281;28;1108;-75
2023/03/26 07:21:36;;;;;;;;;;;7.60;99.90;;;;;;5094102;28;1101;-75
2023/03/26 07:24:09;;;;;;;;;;;7.60;99.90;;;;;;5110833;28;1104;-75
2023/03/26 07:26:54;;;;;;;;;;;7.60;99.90;;;;;;5094021;28;1148;-74
2023/03/26 07:29:34;;;;;;;;;;;7.60;99.90;;;;;;5094384;28;1149;-74
2023/03/26 07:32:14;;;;;;;;;;;7.70;99.90;;;;;;5077802;27;1126;-75
2023/03/26 07:35:06;;;;;;;;;;;7.80;99.90;;;;;;5100922;28;1145;-74
2023/03/26 07:38:00;;;;;;;;;;;7.80;99.90;;;;;;5127932;27;1972;-74
2023/03/26 07:40:42;;;;;;;;;;;7.80;99.90;;;;;;5127727;27;1044;-75
2023/03/26 07:43:33;;;;;;;;;;;7.80;99.90;;;;;;5097479;28;1140;-74
2023/03/26 07:46:27;;;;;;;;;;;7.80;99.90;;;;;;5093938;28;1671;-74
2023/03/26 07:49:13;;;;;;;;;;;7.80;99.90;;;;;;5093772;28;990;-75
2023/03/26 07:52:01;;;;;;;;;;;7.80;99.90;;;;;;5075071;28;1108;-75
2023/03/26 07:54:46;;;;;;;;;;;7.80;99.90;;;;;;5112009;28;1427;-74
2023/03/26 07:57:28;;;;;;;;;;;7.80;99.90;;;;;;5112045;28;1913;-75
2023/03/26 08:00:10;;;;;;;;;;;7.80;99.90;;;;;;5088611;28;1168;-74
2023/03/26 08:03:07;;;;;;;;;;;7.80;99.90;;;;;;5092827;28;1171;-75
2023/03/26 08:06:04;;;;;;;;;;;7.90;99.90;;;;;;5093368;28;1574;-75
2023/03/26 08:08:42;;;;;;;;;;;7.90;99.90;;;;;;5081898;28;1102;-75
2023/03/26 08:11:39;;;;;;;;;;;7.90;99.90;;;;;;5092772;28;1859;-74
2023/03/26 08:14:23;;;;;;;;;;;7.90;99.90;;;;;;5112199;28;1140;-74
2023/03/26 08:16:53;;;;;;;;;;;8.00;99.90;;;;;;5101873;28;1980;-75
2023/03/26 08:19:26;;;;;;;;;;;8.30;99.90;;;;;;5122905;27;1140;-74
2023/03/26 08:21:56;;;;;;;;;;;8.50;99.90;;;;;;5111412;28;1223;-75
2023/03/26 08:24:39;;;;;;;;;;;8.70;99.90;;;;;;5132788;27;1261;-75
2023/03/26 08:27:08;;;;;;;;;;;8.80;99.90;;;;;;5111286;28;1104;-74
2023/03/26 08:29:41;;;;;;;;;;;8.90;99.90;;;;;;5131860;27;1135;-75
2023/03/26 08:32:11;;;;;;;;;;;8.90;99.90;;;;;;5112691;27;1068;-75
2023/03/26 08:34:37;;;;;;;;;;;9.00;99.90;;;;;;5121434;27;1137;-74
2023/03/26 08:37:03;;;;;;;;;;;9.20;99.90;;;;;;5111296;28;1941;-75
2023/03/26 08:39:29;;;;;;;;;;;9.30;99.90;;;;;;5092343;28;1140;-74
2023/03/26 08:42:00;;;;;;;;;;;9.40;99.90;;;;;;5094461;27;1136;-74
2023/03/26 08:44:26;;;;;;;;;;;9.40;99.90;;;;;;5104457;27;1224;-75
2023/03/26 08:47:10;;;;;;;;;;;9.50;99.90;;;;;;5110660;28;1164;-75
2023/03/26 08:49:36;;;;;;;;;;;9.50;99.90;;;;;;5111196;28;965;-75
2023/03/26 08:52:13;;;;;;;;;;;9.60;99.90;;;;;;5110207;28;1120;-74
2023/03/26 08:54:38;;;;;;;;;;;9.50;99.90;;;;;;5092282;28;1097;-74
2023/03/26 08:57:15;;;;;;;;;;;9.60;99.90;;;;;;5092825;28;1934;-75
2023/03/26 08:59:55;;;;;;;;;;;9.60;99.90;;;;;;5110144;28;1123;-74
2023/03/26 09:02:38;;;;;;;;;;;9.60;99.90;;;;;;5109552;28;1181;-74
2023/03/26 09:05:18;;;;;;;;;;;9.60;99.90;;;;;;5112435;27;1294;-74
2023/03/26 09:07:51;;;;;;;;;;;9.60;99.90;;;;;;5092337;28;1109;-75
2023/03/26 09:10:17;;;;;;;;;;;9.60;99.90;;;;;;5092046;28;1058;-74
2023/03/26 09:12:56;;;;;;;;;;;9.60;99.90;;;;;;5111156;28;1376;-74
2023/03/26 09:15:30;;;;;;;;;;;9.70;99.90;;;;;;5092337;28;1132;-74
2023/03/26 09:18:12;;;;;;;;;;;9.90;99.90;;;;;;5109564;28;1913;-74
2023/03/26 09:20:48;;;;;;;;;;;10.10;99.90;;;;;;5091916;28;1212;-74
2023/03/26 09:23:15;;;;;;;;;;;10.20;99.90;;;;;;5110037;28;1171;-75
2023/03/26 09:26:00;;;;;;;;;;;10.40;99.90;;;;;;5110240;28;1503;-75
2023/03/26 09:28:31;;;;;;;;;;;10.60;99.90;;;;;;5109687;27;1191;-75
2023/03/26 09:31:16;;;;;;;;;;;10.60;99.90;;;;;;5109493;27;1128;-74
2023/03/26 09:33:43;;;;;;;;;;;10.70;99.90;;;;;;5110169;27;1210;-75
2023/03/26 09:36:17;;;;;;;;;;;10.70;99.90;;;;;;5106536;28;1918;-75
2023/03/26 09:38:45;;;;;;;;;;;10.70;99.90;;;;;;5128316;27;1234;-75
2023/03/26 09:41:14;;;;;;;;;;;10.70;99.90;;;;;;5113723;27;1231;-75
2023/03/26 09:43:50;;;;;;;;;;;10.50;99.90;;;;;;5108674;27;3593;-75
2023/03/26 09:46:43;;;;;;;;;;;10.40;99.90;;;;;;5108041;28;3505;-75
2023/03/26 09:49:21;;;;;;;;;;;10.30;99.90;;;;;;5106965;28;1236;-75
2023/03/26 09:52:01;;;;;;;;;;;10.30;99.90;;;;;;5115479;27;1196;-75
2023/03/26 09:54:37;;;;;;;;;;;10.20;99.90;;;;;;5107085;27;1256;-75
2023/03/26 09:57:09;;;;;;;;;;;10.10;99.90;;;;;;5079437;28;1890;-75
2023/03/26 09:59:38;;;;;;;;;;;10.00;99.90;;;;;;5100096;28;1317;-75
2023/03/26 10:02:07;;;;;;;;;;;10.00;99.90;;;;;;5129668;27;1271;-74
2023/03/26 10:04:39;;;;;;;;;;;9.80;99.90;;;;;;5110356;27;1281;-75
2023/03/26 10:07:23;;;;;;;;;;;9.80;99.90;;;;;;5109055;28;1313;-75
2023/03/26 10:09:55;;;;;;;;;;;9.80;99.90;;;;;;5125867;27;1294;-74
2023/03/26 10:12:24;;;;;;;;;;;9.80;99.90;;;;;;5093316;28;1278;-75
2023/03/26 10:14:50;;;;;;;;;;;9.90;99.90;;;;;;5109558;28;1107;-75
2023/03/26 10:17:16;;;;;;;;;;;9.90;99.90;;;;;;5109701;28;1914;-74
2023/03/26 10:19:52;;;;;;;;;;;9.90;99.90;;;;;;5110241;28;1150;-75
2023/03/26 10:22:30;;;;;;;;;;;9.90;99.90;;;;;;5088730;28;1086;-75
2023/03/26 10:25:13;;;;;;;;;;;9.90;99.90;;;;;;5105930;28;1199;-75
2023/03/26 10:27:46;;;;;;;;;;;10.10;99.90;;;;;;5108287;28;1129;-74
2023/03/26 10:30:23;;;;;;;;;;;10.50;99.90;;;;;;5107899;27;1282;-75
2023/03/26 10:32:49;;;;;;;;;;;10.90;99.90;;;;;;5132098;27;1429;-75
2023/03/26 10:35:20;;;;;;;;;;;11.10;99.90;;;;;;5133351;27;1402;-75
2023/03/26 10:38:05;;;;;;;;;;;11.00;99.90;;;;;;5108539;28;1972;-75
2023/03/26 10:40:41;;;;;;;;;;;10.90;99.90;;;;;;5097872;28;2208;-74
2023/03/26 10:43:21;;;;;;;;;;;10.60;99.90;;;;;;5109300;28;1293;-74
2023/03/26 10:45:49;;;;;;;;;;;10.50;99.90;;;;;;5107147;28;1350;-74
2023/03/26 10:48:22;;;;;;;;;;;10.50;99.90;;;;;;5123417;27;1177;-75
2023/03/26 10:50:48;;;;;;;;;;;10.40;99.90;;;;;;5134330;27;1095;-74
2023/03/26 10:53:25;;;;;;;;;;;10.40;99.90;;;;;;5114830;27;1112;-74
2023/03/26 10:55:54;;;;;;;;;;;10.50;99.90;;;;;;5110809;28;1975;-75
2023/03/26 10:58:23;;;;;;;;;;;10.60;99.90;;;;;;5098716;28;1096;-75
2023/03/26 11:00:54;;;;;;;;;;;10.50;99.90;;;;;;5113767;27;1041;-75
2023/03/26 11:03:30;;;;;;;;;;;10.40;99.90;;;;;;5114039;27;1352;-75
2023/03/26 11:06:02;;;;;;;;;;;10.40;99.90;;;;;;5101663;28;1326;-74
2023/03/26 11:08:34;;;;;;;;;;;10.50;99.90;;;;;;5134021;27;1301;-74
2023/03/26 11:11:04;;;;;;;;;;;10.80;99.00;;;;;;5112722;28;1263;-74
2023/03/26 11:13:40;;;;;;;;;;;10.90;99.30;;;;;;5082423;28;1275;-74
2023/03/26 11:16:17;;;;;;;;;;;10.90;99.90;;;;;;5113531;27;1910;-74
2023/03/26 11:18:48;;;;;;;;;;;11.00;99.90;;;;;;5113925;27;1274;-75
2023/03/26 11:21:29;;;;;;;;;;;11.20;99.90;;;;;;5134884;27;1230;-74
2023/03/26 11:24:11;;;;;;;;;;;11.30;98.90;;;;;;5110460;28;1126;-74
2023/03/26 11:26:42;;;;;;;;;;;11.90;98.20;;;;;;5092071;28;1164;-75
2023/03/26 11:29:24;;;;;;;;;;;12.90;95.80;;;;;;5111234;27;1157;-74
2023/03/26 11:31:55;;;;;;;;;;;13.00;93.80;;;;;;5112665;28;1273;-74
2023/03/26 11:34:26;;;;;;;;;;;12.30;93.10;;;;;;5112013;28;1123;-74
2023/03/26 11:36:55;;;;;;;;;;;11.60;96.40;;;;;;5112045;28;1972;-74
2023/03/26 11:39:22;;;;;;;;;;;11.60;96.90;;;;;;5111882;28;1084;-74
2023/03/26 11:41:50;;;;;;;;;;;11.80;95.50;;;;;;5113048;27;1100;-74
2023/03/26 11:44:31;;;;;;;;;;;11.70;96.40;;;;;;5111233;28;1297;-74
2023/03/26 11:47:02;;;;;;;;;;;11.70;95.80;;;;;;5115205;27;1257;-74
2023/03/26 11:49:28;;;;;;;;;;;11.60;96.30;;;;;;5120489;27;1133;-74
2023/03/26 11:51:54;;;;;;;;;;;11.50;98.10;;;;;;5111833;28;1116;-75
2023/03/26 11:54:21;;;;;;;;;;;11.50;97.30;;;;;;5112102;28;1179;-74
2023/03/26 11:56:58;;;;;;;;;;;11.50;96.90;;;;;;5111782;28;1902;-75
2023/03/26 11:59:25;;;;;;;;;;;11.30;97.80;;;;;;5110839;28;1074;-75
2023/03/26 12:01:54;;;;;;;;;;;10.90;98.70;;;;;;5111254;28;1131;-75
2023/03/26 12:04:33;;;;;;;;;;;10.70;98.70;;;;;;5111951;28;1163;-76
2023/03/26 12:07:07;;;;;;;;;;;10.60;99.90;;;;;;5110775;28;1615;-74
2023/03/26 12:09:33;;;;;;;;;;;10.60;99.50;;;;;;5111466;28;1156;-74
2023/03/26 12:12:01;;;;;;;;;;;10.60;99.20;;;;;;5111767;28;1274;-74
2023/03/26 12:14:28;;;;;;;;;;;10.80;99.90;;;;;;5111315;28;1156;-75
2023/03/26 12:17:02;;;;;;;;;;;10.80;99.40;;;;;;5110921;28;1968;-75
2023/03/26 12:19:34;;;;;;;;;;;10.70;98.80;;;;;;5108367;28;1151;-75
2023/03/26 12:21:59;;;;;;;;;;;10.60;98.90;;;;;;5122592;27;1181;-75
2023/03/26 12:24:28;;;;;;;;;;;10.60;98.00;;;;;;5123459;27;1036;-74
2023/03/26 12:26:56;;;;;;;;;;;10.50;99.20;;;;;;5111804;28;1183;-75
2023/03/26 12:29:22;;;;;;;;;;;10.30;99.80;;;;;;5093994;28;1100;-75
2023/03/26 12:31:48;;;;;;;;;;;10.30;99.80;;;;;;5133702;27;1261;-74
2023/03/26 12:34:15;;;;;;;;;;;10.10;99.90;;;;;;5134951;27;1151;-74
2023/03/26 12:36:48;;;;;;;;;;;10.00;99.90;;;;;;5111350;27;1910;-74
2023/03/26 12:39:31;;;;;;;;;;;9.90;99.20;;;;;;5098543;28;1958;-74
2023/03/26 12:41:58;;;;;;;;;;;9.90;99.90;;;;;;5108844;28;1204;-74
2023/03/26 12:44:27;;;;;;;;;;;9.90;99.80;;;;;;5109938;28;1243;-74
2023/03/26 12:47:07;;;;;;;;;;;10.10;98.70;;;;;;5109279;27;1196;-74
2023/03/26 12:49:33;;;;;;;;;;;10.20;98.80;;;;;;5110418;27;1203;-74
2023/03/26 12:52:19;;;;;;;;;;;10.30;98.60;;;;;;5129959;27;1589;-74
2023/03/26 12:54:47;;;;;;;;;;;10.30;98.80;;;;;;5113164;27;1229;-74
2023/03/26 12:57:15;;;;;;;;;;;10.30;97.70;;;;;;5100507;28;1917;-74
2023/03/26 12:59:47;;;;;;;;;;;10.20;98.00;;;;;;5109544;27;1099;-74
2023/03/26 13:02:31;;;;;;;;;;;10.20;99.20;;;;;;5098348;28;1141;-74
2023/03/26 13:04:57;;;;;;;;;;;10.30;98.70;;;;;;5110658;27;1231;-74
2023/03/26 13:07:33;;;;;;;;;;;10.30;98.70;;;;;;5110784;27;1630;-74
2023/03/26 13:10:17;;;;;;;;;;;10.50;98.20;;;;;;5130353;27;1112;-74
2023/03/26 13:12:47;;;;;;;;;;;10.80;98.90;;;;;;5108097;28;1278;-74
2023/03/26 13:15:16;;;;;;;;;;;11.10;97.50;;;;;;5099093;28;1192;-74
2023/03/26 13:17:48;;;;;;;;;;;11.60;98.10;;;;;;5109161;28;1918;-74
2023/03/26 13:20:21;;;;;;;;;;;12.40;96.70;;;;;;5108356;27;1168;-74
2023/03/26 13:23:01;;;;;;;;;;;13.20;94.30;;;;;;5111565;27;1239;-74
2023/03/26 13:25:35;;;;;;;;;;;13.10;92.40;;;;;;5134098;27;1265;-74
2023/03/26 13:28:01;;;;;;;;;;;12.50;94.30;;;;;;5110599;27;1244;-74
2023/03/26 13:30:27;;;;;;;;;;;11.80;94.60;;;;;;5110049;27;1198;-74
2023/03/26 13:33:01;;;;;;;;;;;11.20;96.90;;;;;;5101158;28;1239;-74
2023/03/26 13:35:35;;;;;;;;;;;10.60;97.70;;;;;;5109947;27;1262;-74
2023/03/26 13:38:09;;;;;;;;;;;10.20;98.60;;;;;;5099686;28;2018;-74
2023/03/26 13:40:54;;;;;;;;;;;9.80;99.20;;;;;;5097963;27;1243;-74
2023/03/26 13:43:26;;;;;;;;;;;9.60;99.90;;;;;;5115267;27;1176;-74
2023/03/26 13:45:55;;;;;;;;;;;9.50;99.90;;;;;;5107174;28;1168;-74
2023/03/26 13:48:24;;;;;;;;;;;9.40;99.00;;;;;;5109798;28;1230;-74
2023/03/26 13:50:55;;;;;;;;;;;9.50;99.90;;;;;;5110798;27;1219;-74
2023/03/26 13:53:24;;;;;;;;;;;9.60;99.90;;;;;;5132291;27;1681;-73
2023/03/26 13:55:52;;;;;;;;;;;9.90;98.70;;;;;;5111229;27;1231;-74
2023/03/26 13:58:25;;;;;;;;;;;10.20;97.90;;;;;;5108871;28;2012;-74
2023/03/26 14:01:00;;;;;;;;;;;10.60;99.30;;;;;;5106416;28;1282;-73
2023/03/26 14:03:45;;;;;;;;;;;10.90;98.40;;;;;;5109800;27;1325;-74
2023/03/26 14:06:25;;;;;;;;;;;10.70;97.60;;;;;;5112013;27;1302;-73
2023/03/26 14:08:55;;;;;;;;;;;10.60;97.40;;;;;;5129871;27;1016;-74
2023/03/26 14:11:30;;;;;;;;;;;10.60;97.30;;;;;;5103858;27;1282;-73
2023/03/26 14:14:02;;;;;;;;;;;10.90;96.90;;;;;;5109844;28;1041;-73
2023/03/26 14:16:33;;;;;;;;;;;11.50;96.80;;;;;;5108877;28;1914;-73
2023/03/26 14:18:59;;;;;;;;;;;11.70;95.90;;;;;;5108887;28;1072;-73
2023/03/26 14:21:25;;;;;;;;;;;11.30;95.40;;;;;;5106229;28;3605;-74
2023/03/26 14:23:56;;;;;;;;;;;10.80;96.30;;;;;;5108063;28;3510;-73
2023/03/26 14:26:30;;;;;;;;;;;10.80;97.30;;;;;;5095321;28;1081;-73
2023/03/26 14:29:03;;;;;;;;;;;11.10;96.70;;;;;;5102689;28;1088;-73
2023/03/26 14:31:34;;;;;;;;;;;10.80;94.70;;;;;;5145686;27;1696;-73
2023/03/26 14:34:01;;;;;;;;;;;10.40;95.30;;;;;;5091524;28;1161;-73
2023/03/26 14:36:38;;;;;;;;;;;10.70;96.70;;;;;;5107916;28;1961;-74
2023/03/26 14:39:05;;;;;;;;;;;11.80;95.00;;;;;;5108888;28;3510;-73
2023/03/26 14:41:36;;;;;;;;;;;13.30;90.20;;;;;;5124253;27;1033;-74
2023/03/26 14:44:21;;;;;;;;;;;14.40;83.80;;;;;;5123450;27;1649;-74
2023/03/26 14:46:47;;;;;;;;;;;15.10;82.00;;;;;;5114259;28;1171;-74
2023/03/26 14:49:33;;;;;;;;;;;15.90;77.40;;;;;;5109261;28;1071;-73
2023/03/26 14:52:01;;;;;;;;;;;16.60;75.40;;;;;;5073200;28;1152;-74
2023/03/26 14:54:29;;;;;;;;;;;16.60;73.00;;;;;;5108775;28;1120;-73
2023/03/26 14:57:14;;;;;;;;;;;17.10;72.20;;;;;;5090146;28;2016;-74
2023/03/26 14:59:58;;;;;;;;;;;17.20;71.30;;;;;;5090529;28;1407;-74
2023/03/26 15:02:24;;;;;;;;;;;16.90;68.00;;;;;;5108605;28;1198;-73
2023/03/26 15:04:50;;;;;;;;;;;15.50;71.40;;;;;;5107609;28;1117;-73
2023/03/26 15:07:37;;;;;;;;;;;14.80;92.20;;;;;;5108555;28;1560;-73
2023/03/26 15:10:03;;;;;;;;;;;13.50;78.50;;;;;;5107889;28;1105;-73
2023/03/26 15:12:48;;;;;;;;;;;12.20;85.10;;;;;;5107593;28;1409;-73
2023/03/26 15:15:30;;;;;;;;;;;11.60;87.40;;;;;;5106100;28;1180;-73